sensor_id;sensor_type;location;lat;lon;timestamp;P1;durP1;ratioP1;P2;durP2;ratioP2
68744;SDS011;66104;45.456;11.064;2023-06-19T00:00:57;11.40;;;7.30;;
68744;SDS011;66104;45.456;11.064;2023-06-19T00:03:33;8.60;;;6.50;;
68744;SDS011;66104;45.456;11.064;2023-06-19T00:06:09;8.10;;;7.20;;
68744;SDS011;66104;45.456;11.064;2023-06-19T00:08:46;9.70;;;7.80;;
68744;SDS011;66104;45.456;11.064;2023-06-19T00:11:24;9.40;;;7.30;;
68744;SDS011;66104;45.456;11.064;2023-06-19T00:14:01;8.40;;;7.50;;
68744;SDS011;66104;45.456;11.064;2023-06-19T00:16:37;10.10;;;7.50;;
68744;SDS011;66104;45.456;11.064;2023-06-19T00:19:14;9.50;;;7.00;;
68744;SDS011;66104;45.456;11.064;2023-06-19T00:21:51;10.80;;;7.40;;
68744;SDS011;66104;45.456;11.064;2023-06-19T00:24:29;8.40;;;7.20;;
68744;SDS011;66104;45.456;11.064;2023-06-19T00:27:07;7.90;;;6.70;;
68744;SDS011;66104;45.456;11.064;2023-06-19T00:29:45;11.20;;;7.40;;
68744;SDS011;66104;45.456;11.064;2023-06-19T00:32:22;9.10;;;7.30;;
68744;SDS011;66104;45.456;11.064;2023-06-19T00:34:59;11.00;;;7.40;;
68744;SDS011;66104;45.456;11.064;2023-06-19T00:37:36;8.60;;;7.10;;
68744;SDS011;66104;45.456;11.064;2023-06-19T00:40:26;10.10;;;7.10;;
68744;SDS011;66104;45.456;11.064;2023-06-19T00:43:04;8.50;;;6.80;;
68744;SDS011;66104;45.456;11.064;2023-06-19T00:45:41;8.60;;;7.50;;
68744;SDS011;66104;45.456;11.064;2023-06-19T00:48:17;9.40;;;7.50;;
68744;SDS011;66104;45.456;11.064;2023-06-19T00:50:54;9.00;;;7.30;;
68744;SDS011;66104;45.456;11.064;2023-06-19T00:53:32;8.90;;;7.20;;
68744;SDS011;66104;45.456;11.064;2023-06-19T00:56:11;8.90;;;7.30;;
68744;SDS011;66104;45.456;11.064;2023-06-19T00:58:49;11.40;;;6.80;;
68744;SDS011;66104;45.456;11.064;2023-06-19T01:01:26;9.30;;;7.00;;
68744;SDS011;66104;45.456;11.064;2023-06-19T01:04:03;8.00;;;6.80;;
68744;SDS011;66104;45.456;11.064;2023-06-19T01:06:45;9.20;;;7.10;;
68744;SDS011;66104;45.456;11.064;2023-06-19T01:09:32;12.30;;;7.40;;
68744;SDS011;66104;45.456;11.064;2023-06-19T01:12:16;9.40;;;6.70;;
68744;SDS011;66104;45.456;11.064;2023-06-19T01:15:00;9.00;;;7.10;;
68744;SDS011;66104;45.456;11.064;2023-06-19T01:17:39;9.40;;;6.60;;
68744;SDS011;66104;45.456;11.064;2023-06-19T01:20:18;7.50;;;6.70;;
68744;SDS011;66104;45.456;11.064;2023-06-19T01:22:55;8.90;;;6.70;;
68744;SDS011;66104;45.456;11.064;2023-06-19T01:25:38;9.60;;;7.30;;
68744;SDS011;66104;45.456;11.064;2023-06-19T01:28:14;10.70;;;7.30;;
68744;SDS011;66104;45.456;11.064;2023-06-19T01:30:51;8.40;;;7.30;;
68744;SDS011;66104;45.456;11.064;2023-06-19T01:33:30;10.10;;;8.60;;
68744;SDS011;66104;45.456;11.064;2023-06-19T01:36:11;9.60;;;7.80;;
68744;SDS011;66104;45.456;11.064;2023-06-19T01:38:49;10.00;;;7.20;;
68744;SDS011;66104;45.456;11.064;2023-06-19T01:41:29;8.90;;;8.00;;
68744;SDS011;66104;45.456;11.064;2023-06-19T01:44:08;9.90;;;8.00;;
68744;SDS011;66104;45.456;11.064;2023-06-19T01:46:45;12.90;;;8.10;;
68744;SDS011;66104;45.456;11.064;2023-06-19T01:49:23;9.50;;;8.30;;
68744;SDS011;66104;45.456;11.064;2023-06-19T01:52:00;9.40;;;7.60;;
68744;SDS011;66104;45.456;11.064;2023-06-19T01:54:37;9.50;;;8.10;;
68744;SDS011;66104;45.456;11.064;2023-06-19T01:57:14;10.50;;;7.80;;
68744;SDS011;66104;45.456;11.064;2023-06-19T01:59:51;12.70;;;8.10;;
68744;SDS011;66104;45.456;11.064;2023-06-19T02:02:28;8.40;;;7.20;;
68744;SDS011;66104;45.456;11.064;2023-06-19T02:05:05;9.80;;;7.40;;
68744;SDS011;66104;45.456;11.064;2023-06-19T02:07:43;9.60;;;7.90;;
68744;SDS011;66104;45.456;11.064;2023-06-19T02:10:19;11.40;;;7.80;;
68744;SDS011;66104;45.456;11.064;2023-06-19T02:13:00;9.90;;;7.60;;
68744;SDS011;66104;45.456;11.064;2023-06-19T02:15:36;10.30;;;7.70;;
68744;SDS011;66104;45.456;11.064;2023-06-19T02:18:12;11.50;;;7.80;;
68744;SDS011;66104;45.456;11.064;2023-06-19T02:20:48;9.10;;;7.60;;
68744;SDS011;66104;45.456;11.064;2023-06-19T02:23:26;8.60;;;7.50;;
68744;SDS011;66104;45.456;11.064;2023-06-19T02:26:04;8.70;;;7.80;;
68744;SDS011;66104;45.456;11.064;2023-06-19T02:28:42;9.60;;;7.70;;
68744;SDS011;66104;45.456;11.064;2023-06-19T02:31:19;9.10;;;7.70;;
68744;SDS011;66104;45.456;11.064;2023-06-19T02:33:56;9.50;;;7.20;;
68744;SDS011;66104;45.456;11.064;2023-06-19T02:36:33;13.10;;;7.80;;
68744;SDS011;66104;45.456;11.064;2023-06-19T02:39:08;10.70;;;7.50;;
68744;SDS011;66104;45.456;11.064;2023-06-19T02:41:46;9.30;;;7.20;;
68744;SDS011;66104;45.456;11.064;2023-06-19T02:44:22;11.20;;;7.70;;
68744;SDS011;66104;45.456;11.064;2023-06-19T02:46:58;10.00;;;7.80;;
68744;SDS011;66104;45.456;11.064;2023-06-19T02:49:34;11.80;;;8.20;;
68744;SDS011;66104;45.456;11.064;2023-06-19T02:52:13;10.80;;;9.40;;
68744;SDS011;66104;45.456;11.064;2023-06-19T02:54:50;10.60;;;8.50;;
68744;SDS011;66104;45.456;11.064;2023-06-19T02:57:26;10.00;;;8.30;;
68744;SDS011;66104;45.456;11.064;2023-06-19T03:00:04;9.50;;;7.60;;
68744;SDS011;66104;45.456;11.064;2023-06-19T03:02:46;10.10;;;8.20;;
68744;SDS011;66104;45.456;11.064;2023-06-19T03:05:23;9.30;;;8.10;;
68744;SDS011;66104;45.456;11.064;2023-06-19T03:08:00;9.30;;;8.00;;
68744;SDS011;66104;45.456;11.064;2023-06-19T03:10:36;10.80;;;8.30;;
68744;SDS011;66104;45.456;11.064;2023-06-19T03:16:02;9.30;;;8.30;;
68744;SDS011;66104;45.456;11.064;2023-06-19T03:18:36;10.30;;;7.60;;
68744;SDS011;66104;45.456;11.064;2023-06-19T03:21:09;9.80;;;8.20;;
68744;SDS011;66104;45.456;11.064;2023-06-19T03:23:44;10.70;;;8.30;;
68744;SDS011;66104;45.456;11.064;2023-06-19T03:26:18;10.90;;;7.90;;
68744;SDS011;66104;45.456;11.064;2023-06-19T03:28:52;10.30;;;7.90;;
68744;SDS011;66104;45.456;11.064;2023-06-19T03:31:26;12.40;;;8.70;;
68744;SDS011;66104;45.456;11.064;2023-06-19T03:34:00;11.50;;;8.40;;
68744;SDS011;66104;45.456;11.064;2023-06-19T03:36:37;11.60;;;8.90;;
68744;SDS011;66104;45.456;11.064;2023-06-19T03:39:13;14.20;;;8.80;;
68744;SDS011;66104;45.456;11.064;2023-06-19T03:41:47;10.60;;;8.70;;
68744;SDS011;66104;45.456;11.064;2023-06-19T03:44:20;10.60;;;9.10;;
68744;SDS011;66104;45.456;11.064;2023-06-19T03:46:53;13.70;;;8.70;;
68744;SDS011;66104;45.456;11.064;2023-06-19T03:49:26;10.70;;;8.50;;
68744;SDS011;66104;45.456;11.064;2023-06-19T03:52:00;11.60;;;8.20;;
68744;SDS011;66104;45.456;11.064;2023-06-19T03:54:35;9.50;;;8.20;;
68744;SDS011;66104;45.456;11.064;2023-06-19T03:57:09;12.70;;;8.70;;
68744;SDS011;66104;45.456;11.064;2023-06-19T03:59:42;11.40;;;9.50;;
68744;SDS011;66104;45.456;11.064;2023-06-19T04:02:15;10.90;;;8.00;;
68744;SDS011;66104;45.456;11.064;2023-06-19T04:04:49;11.40;;;8.80;;
68744;SDS011;66104;45.456;11.064;2023-06-19T04:07:23;9.60;;;8.10;;
68744;SDS011;66104;45.456;11.064;2023-06-19T04:09:57;12.10;;;8.10;;
68744;SDS011;66104;45.456;11.064;2023-06-19T04:12:30;10.30;;;8.10;;
68744;SDS011;66104;45.456;11.064;2023-06-19T04:15:05;11.20;;;8.40;;
68744;SDS011;66104;45.456;11.064;2023-06-19T04:17:41;10.40;;;8.40;;
68744;SDS011;66104;45.456;11.064;2023-06-19T04:20:15;10.60;;;9.10;;
68744;SDS011;66104;45.456;11.064;2023-06-19T04:22:53;9.70;;;8.00;;
68744;SDS011;66104;45.456;11.064;2023-06-19T04:25:27;10.00;;;8.50;;
68744;SDS011;66104;45.456;11.064;2023-06-19T04:28:01;10.20;;;7.80;;
68744;SDS011;66104;45.456;11.064;2023-06-19T04:30:35;10.50;;;8.20;;
68744;SDS011;66104;45.456;11.064;2023-06-19T04:33:10;10.50;;;7.90;;
68744;SDS011;66104;45.456;11.064;2023-06-19T04:35:43;11.60;;;8.10;;
68744;SDS011;66104;45.456;11.064;2023-06-19T04:38:18;14.40;;;8.40;;
68744;SDS011;66104;45.456;11.064;2023-06-19T04:40:53;12.40;;;8.70;;
68744;SDS011;66104;45.456;11.064;2023-06-19T04:43:27;11.80;;;7.80;;
68744;SDS011;66104;45.456;11.064;2023-06-19T04:46:01;10.40;;;8.10;;
68744;SDS011;66104;45.456;11.064;2023-06-19T04:48:34;12.30;;;8.00;;
68744;SDS011;66104;45.456;11.064;2023-06-19T04:51:08;10.80;;;8.50;;
68744;SDS011;66104;45.456;11.064;2023-06-19T04:53:41;10.30;;;7.20;;
68744;SDS011;66104;45.456;11.064;2023-06-19T04:56:15;11.30;;;7.90;;
68744;SDS011;66104;45.456;11.064;2023-06-19T04:58:48;12.20;;;8.20;;
68744;SDS011;66104;45.456;11.064;2023-06-19T05:01:21;10.00;;;8.50;;
68744;SDS011;66104;45.456;11.064;2023-06-19T05:03:57;12.30;;;8.40;;
68744;SDS011;66104;45.456;11.064;2023-06-19T05:06:33;15.00;;;8.50;;
68744;SDS011;66104;45.456;11.064;2023-06-19T05:09:06;13.50;;;9.30;;
68744;SDS011;66104;45.456;11.064;2023-06-19T05:11:40;12.60;;;9.00;;
68744;SDS011;66104;45.456;11.064;2023-06-19T05:14:13;10.20;;;8.10;;
68744;SDS011;66104;45.456;11.064;2023-06-19T05:16:46;10.90;;;8.50;;
68744;SDS011;66104;45.456;11.064;2023-06-19T05:19:19;9.40;;;7.70;;
68744;SDS011;66104;45.456;11.064;2023-06-19T05:21:52;13.40;;;8.00;;
68744;SDS011;66104;45.456;11.064;2023-06-19T05:24:25;10.50;;;8.50;;
68744;SDS011;66104;45.456;11.064;2023-06-19T05:26:58;11.80;;;8.40;;
68744;SDS011;66104;45.456;11.064;2023-06-19T05:29:32;9.00;;;7.30;;
68744;SDS011;66104;45.456;11.064;2023-06-19T05:32:08;13.80;;;8.30;;
68744;SDS011;66104;45.456;11.064;2023-06-19T05:34:42;12.50;;;9.80;;
68744;SDS011;66104;45.456;11.064;2023-06-19T05:37:15;13.30;;;9.20;;
68744;SDS011;66104;45.456;11.064;2023-06-19T05:39:48;11.80;;;8.70;;
68744;SDS011;66104;45.456;11.064;2023-06-19T05:42:21;10.70;;;8.50;;
68744;SDS011;66104;45.456;11.064;2023-06-19T05:44:56;9.70;;;7.80;;
68744;SDS011;66104;45.456;11.064;2023-06-19T05:47:29;10.10;;;7.90;;
68744;SDS011;66104;45.456;11.064;2023-06-19T05:50:02;10.40;;;7.80;;
68744;SDS011;66104;45.456;11.064;2023-06-19T05:52:37;9.90;;;7.50;;
68744;SDS011;66104;45.456;11.064;2023-06-19T05:55:12;11.20;;;8.70;;
68744;SDS011;66104;45.456;11.064;2023-06-19T05:57:45;11.10;;;9.10;;
68744;SDS011;66104;45.456;11.064;2023-06-19T06:00:21;12.20;;;9.20;;
68744;SDS011;66104;45.456;11.064;2023-06-19T06:02:54;13.20;;;10.30;;
68744;SDS011;66104;45.456;11.064;2023-06-19T06:05:30;11.90;;;9.40;;
68744;SDS011;66104;45.456;11.064;2023-06-19T06:08:03;15.50;;;10.20;;
68744;SDS011;66104;45.456;11.064;2023-06-19T06:10:37;10.60;;;9.30;;
68744;SDS011;66104;45.456;11.064;2023-06-19T06:13:10;13.10;;;8.90;;
68744;SDS011;66104;45.456;11.064;2023-06-19T06:15:44;13.70;;;10.50;;
68744;SDS011;66104;45.456;11.064;2023-06-19T06:18:18;16.70;;;11.00;;
68744;SDS011;66104;45.456;11.064;2023-06-19T06:20:56;15.60;;;10.40;;
68744;SDS011;66104;45.456;11.064;2023-06-19T06:23:30;15.20;;;10.50;;
68744;SDS011;66104;45.456;11.064;2023-06-19T06:26:03;12.70;;;8.70;;
68744;SDS011;66104;45.456;11.064;2023-06-19T06:28:37;9.70;;;8.70;;
68744;SDS011;66104;45.456;11.064;2023-06-19T06:31:10;12.20;;;9.20;;
68744;SDS011;66104;45.456;11.064;2023-06-19T06:33:43;12.30;;;9.30;;
68744;SDS011;66104;45.456;11.064;2023-06-19T06:36:17;15.20;;;11.10;;
68744;SDS011;66104;45.456;11.064;2023-06-19T06:39:05;14.80;;;12.00;;
68744;SDS011;66104;45.456;11.064;2023-06-19T06:41:39;19.20;;;11.10;;
68744;SDS011;66104;45.456;11.064;2023-06-19T06:44:13;12.70;;;9.50;;
68744;SDS011;66104;45.456;11.064;2023-06-19T06:46:46;16.30;;;9.50;;
68744;SDS011;66104;45.456;11.064;2023-06-19T06:49:20;11.30;;;9.80;;
68744;SDS011;66104;45.456;11.064;2023-06-19T06:51:54;16.20;;;10.30;;
68744;SDS011;66104;45.456;11.064;2023-06-19T06:54:27;12.20;;;10.60;;
68744;SDS011;66104;45.456;11.064;2023-06-19T06:57:00;14.50;;;11.10;;
68744;SDS011;66104;45.456;11.064;2023-06-19T06:59:34;14.30;;;11.80;;
68744;SDS011;66104;45.456;11.064;2023-06-19T07:02:10;14.70;;;11.30;;
68744;SDS011;66104;45.456;11.064;2023-06-19T07:04:43;14.80;;;11.40;;
68744;SDS011;66104;45.456;11.064;2023-06-19T07:07:20;13.80;;;9.90;;
68744;SDS011;66104;45.456;11.064;2023-06-19T07:09:53;12.50;;;9.60;;
68744;SDS011;66104;45.456;11.064;2023-06-19T07:12:26;11.70;;;10.10;;
68744;SDS011;66104;45.456;11.064;2023-06-19T07:14:59;13.00;;;10.30;;
68744;SDS011;66104;45.456;11.064;2023-06-19T07:17:32;10.60;;;9.30;;
68744;SDS011;66104;45.456;11.064;2023-06-19T07:20:11;12.40;;;9.00;;
68744;SDS011;66104;45.456;11.064;2023-06-19T07:22:46;9.40;;;8.30;;
68744;SDS011;66104;45.456;11.064;2023-06-19T07:25:22;10.20;;;9.00;;
68744;SDS011;66104;45.456;11.064;2023-06-19T07:27:55;11.70;;;8.80;;
68744;SDS011;66104;45.456;11.064;2023-06-19T07:30:29;11.00;;;8.70;;
68744;SDS011;66104;45.456;11.064;2023-06-19T07:33:04;13.00;;;10.10;;
68744;SDS011;66104;45.456;11.064;2023-06-19T07:35:38;13.30;;;10.40;;
68744;SDS011;66104;45.456;11.064;2023-06-19T07:38:11;16.50;;;10.70;;
68744;SDS011;66104;45.456;11.064;2023-06-19T07:40:45;11.70;;;9.60;;
68744;SDS011;66104;45.456;11.064;2023-06-19T07:43:18;13.40;;;9.20;;
68744;SDS011;66104;45.456;11.064;2023-06-19T07:45:52;10.40;;;8.10;;
68744;SDS011;66104;45.456;11.064;2023-06-19T07:48:26;12.80;;;9.20;;
68744;SDS011;66104;45.456;11.064;2023-06-19T07:50:58;12.90;;;9.50;;
68744;SDS011;66104;45.456;11.064;2023-06-19T07:53:32;11.30;;;8.20;;
68744;SDS011;66104;45.456;11.064;2023-06-19T07:56:06;12.00;;;9.80;;
68744;SDS011;66104;45.456;11.064;2023-06-19T07:58:40;14.20;;;9.30;;
68744;SDS011;66104;45.456;11.064;2023-06-19T08:01:14;10.50;;;9.00;;
68744;SDS011;66104;45.456;11.064;2023-06-19T08:03:48;11.90;;;8.50;;
68744;SDS011;66104;45.456;11.064;2023-06-19T08:06:23;12.30;;;9.30;;
68744;SDS011;66104;45.456;11.064;2023-06-19T08:08:56;11.30;;;9.40;;
68744;SDS011;66104;45.456;11.064;2023-06-19T08:11:30;12.80;;;10.40;;
68744;SDS011;66104;45.456;11.064;2023-06-19T08:14:02;11.70;;;9.40;;
68744;SDS011;66104;45.456;11.064;2023-06-19T22:56:56;13.00;;;7.80;;
68744;SDS011;66104;45.456;11.064;2023-06-19T22:59:28;9.00;;;7.60;;
68744;SDS011;66104;45.456;11.064;2023-06-19T23:02:01;9.10;;;7.30;;
68744;SDS011;66104;45.456;11.064;2023-06-19T23:04:34;11.90;;;7.70;;
68744;SDS011;66104;45.456;11.064;2023-06-19T23:07:07;10.30;;;7.50;;
68744;SDS011;66104;45.456;11.064;2023-06-19T23:09:40;11.00;;;7.80;;
68744;SDS011;66104;45.456;11.064;2023-06-19T23:12:14;9.10;;;8.10;;
68744;SDS011;66104;45.456;11.064;2023-06-19T23:14:49;10.50;;;8.10;;
68744;SDS011;66104;45.456;11.064;2023-06-19T23:17:22;9.20;;;7.50;;
68744;SDS011;66104;45.456;11.064;2023-06-19T23:19:55;11.70;;;8.00;;
68744;SDS011;66104;45.456;11.064;2023-06-19T23:22:28;10.10;;;7.50;;
68744;SDS011;66104;45.456;11.064;2023-06-19T23:25:00;9.00;;;7.50;;
68744;SDS011;66104;45.456;11.064;2023-06-19T23:27:32;12.20;;;7.90;;
68744;SDS011;66104;45.456;11.064;2023-06-19T23:30:07;9.80;;;8.10;;
68744;SDS011;66104;45.456;11.064;2023-06-19T23:32:39;11.00;;;8.10;;
68744;SDS011;66104;45.456;11.064;2023-06-19T23:35:12;8.80;;;7.70;;
68744;SDS011;66104;45.456;11.064;2023-06-19T23:37:44;10.80;;;8.40;;
68744;SDS011;66104;45.456;11.064;2023-06-19T23:40:17;11.40;;;8.40;;
68744;SDS011;66104;45.456;11.064;2023-06-19T23:42:49;12.30;;;8.60;;
68744;SDS011;66104;45.456;11.064;2023-06-19T23:45:21;11.10;;;7.90;;
68744;SDS011;66104;45.456;11.064;2023-06-19T23:47:55;11.00;;;8.10;;
68744;SDS011;66104;45.456;11.064;2023-06-19T23:50:28;8.60;;;7.70;;
68744;SDS011;66104;45.456;11.064;2023-06-19T23:53:00;8.90;;;8.00;;
68744;SDS011;66104;45.456;11.064;2023-06-19T23:55:33;10.40;;;8.20;;
68744;SDS011;66104;45.456;11.064;2023-06-19T23:58:05;10.20;;;7.50;;
